sensor_id;sensor_type;location;lat;lon;timestamp;pressure;altitude;pressure_sealevel;temperature;humidity
71165;BME280;58859;55.132;-1.586;2023-05-03T00:02:20;102437.06;;;12.03;100.00
71165;BME280;58859;55.132;-1.586;2023-05-03T00:04:45;102435.66;;;12.21;100.00
71165;BME280;58859;55.132;-1.586;2023-05-03T00:07:12;102444.81;;;12.38;100.00
71165;BME280;58859;55.132;-1.586;2023-05-03T00:09:37;102439.38;;;12.30;100.00
71165;BME280;58859;55.132;-1.586;2023-05-03T00:12:03;102447.31;;;12.28;100.00
71165;BME280;58859;55.132;-1.586;2023-05-03T00:14:30;102443.72;;;12.18;100.00
71165;BME280;58859;55.132;-1.586;2023-05-03T00:16:55;102438.06;;;11.89;100.00
71165;BME280;58859;55.132;-1.586;2023-05-03T00:19:21;102439.38;;;11.47;100.00
71165;BME280;58859;55.132;-1.586;2023-05-03T00:21:46;102438.53;;;11.47;100.00
71165;BME280;58859;55.132;-1.586;2023-05-03T00:24:12;102437.31;;;11.64;100.00
71165;BME280;58859;55.132;-1.586;2023-05-03T00:26:37;102430.66;;;11.36;100.00
71165;BME280;58859;55.132;-1.586;2023-05-03T00:29:03;102432.34;;;11.37;100.00
71165;BME280;58859;55.132;-1.586;2023-05-03T00:31:28;102421.38;;;11.21;100.00
71165;BME280;58859;55.132;-1.586;2023-05-03T00:33:53;102426.69;;;11.43;100.00
71165;BME280;58859;55.132;-1.586;2023-05-03T00:36:19;102429.31;;;11.43;100.00
71165;BME280;58859;55.132;-1.586;2023-05-03T00:38:45;102431.91;;;11.43;100.00
71165;BME280;58859;55.132;-1.586;2023-05-03T00:41:11;102432.34;;;11.61;100.00
71165;BME280;58859;55.132;-1.586;2023-05-03T00:43:39;102425.09;;;11.29;100.00
71165;BME280;58859;55.132;-1.586;2023-05-03T00:46:06;102420.63;;;11.19;100.00
71165;BME280;58859;55.132;-1.586;2023-05-03T00:48:32;102426.44;;;11.22;100.00
71165;BME280;58859;55.132;-1.586;2023-05-03T00:50:59;102422.56;;;11.28;100.00
71165;BME280;58859;55.132;-1.586;2023-05-03T00:53:25;102413.91;;;11.40;100.00
71165;BME280;58859;55.132;-1.586;2023-05-03T00:55:51;102422.28;;;11.20;100.00
71165;BME280;58859;55.132;-1.586;2023-05-03T00:58:17;102417.44;;;11.39;100.00
71165;BME280;58859;55.132;-1.586;2023-05-03T01:00:43;102422.56;;;11.28;100.00
71165;BME280;58859;55.132;-1.586;2023-05-03T01:03:08;102420.13;;;11.14;100.00
71165;BME280;58859;55.132;-1.586;2023-05-03T01:05:50;102423.34;;;11.41;100.00
71165;BME280;58859;55.132;-1.586;2023-05-03T01:08:32;102423.66;;;11.49;100.00
71165;BME280;58859;55.132;-1.586;2023-05-03T01:16:13;102425.38;;;11.85;100.00
71165;BME280;58859;55.132;-1.586;2023-05-03T01:18:44;102422.09;;;11.94;100.00
71165;BME280;58859;55.132;-1.586;2023-05-03T01:21:15;102418.25;;;11.87;100.00
71165;BME280;58859;55.132;-1.586;2023-05-03T01:26:24;102418.03;;;11.42;100.00
71165;BME280;58859;55.132;-1.586;2023-05-03T01:28:50;102412.13;;;11.40;100.00
71165;BME280;58859;55.132;-1.586;2023-05-03T01:34:30;102406.22;;;11.49;100.00
71165;BME280;58859;55.132;-1.586;2023-05-03T01:36:58;102405.41;;;11.49;100.00
71165;BME280;58859;55.132;-1.586;2023-05-03T01:39:45;102402.81;;;11.13;100.00
71165;BME280;58859;55.132;-1.586;2023-05-03T01:42:13;102394.34;;;10.98;100.00
71165;BME280;58859;55.132;-1.586;2023-05-03T01:44:39;102393.59;;;10.96;100.00
71165;BME280;58859;55.132;-1.586;2023-05-03T01:47:06;102393.09;;;10.91;100.00
71165;BME280;58859;55.132;-1.586;2023-05-03T01:49:32;102392.63;;;10.73;100.00
71165;BME280;58859;55.132;-1.586;2023-05-03T01:51:58;102389.44;;;11.06;100.00
71165;BME280;58859;55.132;-1.586;2023-05-03T01:54:24;102398.94;;;10.94;100.00
71165;BME280;58859;55.132;-1.586;2023-05-03T01:56:49;102406.66;;;11.20;100.00
71165;BME280;58859;55.132;-1.586;2023-05-03T01:59:14;102406.91;;;11.88;100.00
71165;BME280;58859;55.132;-1.586;2023-05-03T02:01:40;102402.25;;;11.80;100.00
71165;BME280;58859;55.132;-1.586;2023-05-03T02:04:05;102403.03;;;11.70;100.00
71165;BME280;58859;55.132;-1.586;2023-05-03T02:06:30;102395.34;;;11.55;100.00
71165;BME280;58859;55.132;-1.586;2023-05-03T02:08:56;102400.09;;;11.50;100.00
71165;BME280;58859;55.132;-1.586;2023-05-03T02:11:21;102400.13;;;11.62;100.00
71165;BME280;58859;55.132;-1.586;2023-05-03T02:13:48;102405.63;;;11.46;100.00
71165;BME280;58859;55.132;-1.586;2023-05-03T02:16:13;102412.06;;;11.77;100.00
71165;BME280;58859;55.132;-1.586;2023-05-03T02:18:39;102406.41;;;11.59;100.00
71165;BME280;58859;55.132;-1.586;2023-05-03T02:21:04;102406.16;;;11.75;100.00
71165;BME280;58859;55.132;-1.586;2023-05-03T02:23:30;102405.34;;;11.85;100.00
71165;BME280;58859;55.132;-1.586;2023-05-03T02:25:56;102413.00;;;11.76;100.00
71165;BME280;58859;55.132;-1.586;2023-05-03T02:28:22;102405.31;;;11.74;100.00
71165;BME280;58859;55.132;-1.586;2023-05-03T02:30:47;102408.28;;;11.81;100.00
71165;BME280;58859;55.132;-1.586;2023-05-03T02:33:13;102416.91;;;11.70;100.00
71165;BME280;58859;55.132;-1.586;2023-05-03T02:35:38;102406.06;;;11.87;100.00
71165;BME280;58859;55.132;-1.586;2023-05-03T02:38:04;102409.72;;;11.85;100.00
71165;BME280;58859;55.132;-1.586;2023-05-03T02:40:29;102413.34;;;11.71;100.00
71165;BME280;58859;55.132;-1.586;2023-05-03T02:42:55;102407.41;;;11.45;100.00
71165;BME280;58859;55.132;-1.586;2023-05-03T02:45:20;102405.56;;;11.59;100.00
71165;BME280;58859;55.132;-1.586;2023-05-03T02:47:45;102404.13;;;11.54;100.00
71165;BME280;58859;55.132;-1.586;2023-05-03T02:50:11;102404.63;;;11.36;100.00
71165;BME280;58859;55.132;-1.586;2023-05-03T02:52:36;102399.47;;;11.23;100.00
71165;BME280;58859;55.132;-1.586;2023-05-03T02:55:02;102392.25;;;11.27;100.00
71165;BME280;58859;55.132;-1.586;2023-05-03T02:57:27;102396.41;;;11.06;100.00
71165;BME280;58859;55.132;-1.586;2023-05-03T02:59:52;102406.53;;;11.21;100.00
71165;BME280;58859;55.132;-1.586;2023-05-03T03:02:18;102402.59;;;11.16;100.00
71165;BME280;58859;55.132;-1.586;2023-05-03T03:04:43;102400.91;;;10.91;100.00
71165;BME280;58859;55.132;-1.586;2023-05-03T03:07:09;102388.66;;;10.80;100.00
71165;BME280;58859;55.132;-1.586;2023-05-03T03:09:34;102394.78;;;10.79;100.00
71165;BME280;58859;55.132;-1.586;2023-05-03T03:12:00;102394.16;;;10.88;100.00
71165;BME280;58859;55.132;-1.586;2023-05-03T03:14:28;102397.44;;;10.67;100.00
71165;BME280;58859;55.132;-1.586;2023-05-03T03:16:53;102395.97;;;10.63;100.00
71165;BME280;58859;55.132;-1.586;2023-05-03T03:19:18;102389.28;;;10.59;100.00
71165;BME280;58859;55.132;-1.586;2023-05-03T03:21:44;102394.94;;;11.02;100.00
71165;BME280;58859;55.132;-1.586;2023-05-03T03:24:09;102391.06;;;10.83;100.00
71165;BME280;58859;55.132;-1.586;2023-05-03T03:26:35;102395.78;;;11.02;100.00
71165;BME280;58859;55.132;-1.586;2023-05-03T03:29:00;102401.47;;;11.20;100.00
71165;BME280;58859;55.132;-1.586;2023-05-03T03:31:26;102397.16;;;10.95;100.00
71165;BME280;58859;55.132;-1.586;2023-05-03T03:33:51;102400.41;;;10.73;100.00
71165;BME280;58859;55.132;-1.586;2023-05-03T03:36:16;102398.16;;;10.69;100.00
71165;BME280;58859;55.132;-1.586;2023-05-03T03:38:42;102396.09;;;10.61;100.00
71165;BME280;58859;55.132;-1.586;2023-05-03T03:41:07;102397.53;;;10.65;100.00
71165;BME280;58859;55.132;-1.586;2023-05-03T03:43:33;102391.69;;;10.62;100.00
71165;BME280;58859;55.132;-1.586;2023-05-03T03:45:58;102392.31;;;10.78;100.00
71165;BME280;58859;55.132;-1.586;2023-05-03T03:48:24;102399.56;;;10.85;100.00
71165;BME280;58859;55.132;-1.586;2023-05-03T03:50:49;102393.16;;;10.78;100.00
71165;BME280;58859;55.132;-1.586;2023-05-03T03:53:15;102386.50;;;10.49;100.00
71165;BME280;58859;55.132;-1.586;2023-05-03T03:55:41;102376.41;;;10.45;100.00
71165;BME280;58859;55.132;-1.586;2023-05-03T03:58:06;102382.97;;;10.63;100.00
71165;BME280;58859;55.132;-1.586;2023-05-03T04:00:35;102387.19;;;10.89;100.00
71165;BME280;58859;55.132;-1.586;2023-05-03T04:03:01;102388.88;;;11.14;100.00
71165;BME280;58859;55.132;-1.586;2023-05-03T04:05:26;102388.41;;;10.96;100.00
71165;BME280;58859;55.132;-1.586;2023-05-03T04:07:52;102384.22;;;10.70;100.00
71165;BME280;58859;55.132;-1.586;2023-05-03T04:10:17;102395.63;;;10.80;100.00
71165;BME280;58859;55.132;-1.586;2023-05-03T04:12:43;102394.56;;;10.95;100.00
71165;BME280;58859;55.132;-1.586;2023-05-03T04:15:10;102397.25;;;11.06;100.00
71165;BME280;58859;55.132;-1.586;2023-05-03T04:17:35;102389.31;;;11.08;100.00
71165;BME280;58859;55.132;-1.586;2023-05-03T04:20:01;102376.28;;;10.71;100.00
71165;BME280;58859;55.132;-1.586;2023-05-03T04:22:33;102370.81;;;10.87;100.00
71165;BME280;58859;55.132;-1.586;2023-05-03T04:24:58;102375.22;;;10.86;100.00
71165;BME280;58859;55.132;-1.586;2023-05-03T04:27:25;102374.66;;;10.94;100.00
71165;BME280;58859;55.132;-1.586;2023-05-03T04:29:51;102371.94;;;10.59;100.00
71165;BME280;58859;55.132;-1.586;2023-05-03T04:32:16;102370.50;;;10.43;100.00
71165;BME280;58859;55.132;-1.586;2023-05-03T04:34:48;102365.88;;;10.71;100.00
71165;BME280;58859;55.132;-1.586;2023-05-03T04:37:14;102368.00;;;10.41;100.00
71165;BME280;58859;55.132;-1.586;2023-05-03T04:39:40;102367.16;;;10.41;100.00
71165;BME280;58859;55.132;-1.586;2023-05-03T04:42:05;102372.88;;;10.58;100.00
71165;BME280;58859;55.132;-1.586;2023-05-03T04:44:31;102377.69;;;10.26;100.00
71165;BME280;58859;55.132;-1.586;2023-05-03T04:46:57;102373.13;;;10.30;100.00
71165;BME280;58859;55.132;-1.586;2023-05-03T04:49:23;102381.41;;;10.48;100.00
71165;BME280;58859;55.132;-1.586;2023-05-03T04:51:49;102382.03;;;10.26;100.00
71165;BME280;58859;55.132;-1.586;2023-05-03T04:54:14;102395.03;;;10.26;100.00
71165;BME280;58859;55.132;-1.586;2023-05-03T04:56:40;102392.25;;;10.29;100.00
71165;BME280;58859;55.132;-1.586;2023-05-03T04:59:05;102394.63;;;10.19;100.00
71165;BME280;58859;55.132;-1.586;2023-05-03T05:01:31;102397.66;;;10.26;100.00
71165;BME280;58859;55.132;-1.586;2023-05-03T05:03:56;102399.94;;;10.18;100.00
71165;BME280;58859;55.132;-1.586;2023-05-03T05:06:22;102401.44;;;10.08;100.00
71165;BME280;58859;55.132;-1.586;2023-05-03T05:08:47;102399.00;;;10.31;100.00
71165;BME280;58859;55.132;-1.586;2023-05-03T05:11:13;102386.19;;;10.28;100.00
71165;BME280;58859;55.132;-1.586;2023-05-03T05:13:38;102390.78;;;10.37;100.00
71165;BME280;58859;55.132;-1.586;2023-05-03T05:16:04;102397.84;;;10.61;100.00
71165;BME280;58859;55.132;-1.586;2023-05-03T05:18:30;102405.06;;;10.93;100.00
71165;BME280;58859;55.132;-1.586;2023-05-03T05:20:55;102405.19;;;10.92;100.00
71165;BME280;58859;55.132;-1.586;2023-05-03T05:23:20;102389.50;;;10.68;100.00
71165;BME280;58859;55.132;-1.586;2023-05-03T05:25:46;102392.66;;;10.48;100.00
71165;BME280;58859;55.132;-1.586;2023-05-03T05:28:11;102390.34;;;10.69;100.00
71165;BME280;58859;55.132;-1.586;2023-05-03T05:30:37;102396.75;;;10.88;100.00
71165;BME280;58859;55.132;-1.586;2023-05-03T05:33:02;102397.53;;;10.27;100.00
71165;BME280;58859;55.132;-1.586;2023-05-03T05:35:27;102396.19;;;10.34;100.00
71165;BME280;58859;55.132;-1.586;2023-05-03T05:37:53;102402.19;;;10.73;100.00
71165;BME280;58859;55.132;-1.586;2023-05-03T05:40:19;102405.56;;;10.98;100.00
71165;BME280;58859;55.132;-1.586;2023-05-03T05:42:45;102404.75;;;10.98;100.00
71165;BME280;58859;55.132;-1.586;2023-05-03T05:45:10;102413.06;;;11.03;100.00
71165;BME280;58859;55.132;-1.586;2023-05-03T05:47:36;102408.28;;;10.97;100.00
71165;BME280;58859;55.132;-1.586;2023-05-03T05:50:01;102412.22;;;11.15;100.00
71165;BME280;58859;55.132;-1.586;2023-05-03T05:52:28;102422.31;;;11.07;100.00
71165;BME280;58859;55.132;-1.586;2023-05-03T05:54:53;102421.38;;;11.21;100.00
71165;BME280;58859;55.132;-1.586;2023-05-03T05:57:19;102420.47;;;11.33;100.00
71165;BME280;58859;55.132;-1.586;2023-05-03T05:59:45;102422.91;;;11.47;100.00
71165;BME280;58859;55.132;-1.586;2023-05-03T06:02:14;102414.59;;;11.42;100.00
71165;BME280;58859;55.132;-1.586;2023-05-03T06:04:44;102410.56;;;11.38;100.00
71165;BME280;58859;55.132;-1.586;2023-05-03T06:07:10;102414.66;;;11.53;100.00
71165;BME280;58859;55.132;-1.586;2023-05-03T06:09:36;102411.88;;;11.67;100.00
71165;BME280;58859;55.132;-1.586;2023-05-03T06:12:01;102420.09;;;11.50;100.00
71165;BME280;58859;55.132;-1.586;2023-05-03T06:14:26;102420.47;;;11.69;100.00
71165;BME280;58859;55.132;-1.586;2023-05-03T06:16:52;102418.75;;;11.44;100.00
71165;BME280;58859;55.132;-1.586;2023-05-03T06:19:18;102424.09;;;11.43;100.00
71165;BME280;58859;55.132;-1.586;2023-05-03T06:21:43;102429.09;;;11.70;100.00
71165;BME280;58859;55.132;-1.586;2023-05-03T06:24:08;102409.06;;;11.70;100.00
71165;BME280;58859;55.132;-1.586;2023-05-03T06:26:34;102428.00;;;11.96;100.00
71165;BME280;58859;55.132;-1.586;2023-05-03T06:28:59;102437.06;;;12.03;100.00
71165;BME280;58859;55.132;-1.586;2023-05-03T06:31:25;102432.13;;;12.22;100.00
71165;BME280;58859;55.132;-1.586;2023-05-03T06:33:50;102432.44;;;11.72;100.00
71165;BME280;58859;55.132;-1.586;2023-05-03T06:36:15;102429.34;;;11.78;100.00
71165;BME280;58859;55.132;-1.586;2023-05-03T06:38:41;102437.84;;;11.92;100.00
71165;BME280;58859;55.132;-1.586;2023-05-03T06:41:06;102440.03;;;12.09;100.00
71165;BME280;58859;55.132;-1.586;2023-05-03T06:43:32;102441.13;;;12.29;100.00
71165;BME280;58859;55.132;-1.586;2023-05-03T06:45:57;102449.59;;;11.98;100.00
71165;BME280;58859;55.132;-1.586;2023-05-03T06:48:23;102450.22;;;12.13;100.00
71165;BME280;58859;55.132;-1.586;2023-05-03T06:50:48;102445.75;;;12.15;100.00
71165;BME280;58859;55.132;-1.586;2023-05-03T06:53:14;102448.88;;;11.96;100.00
71165;BME280;58859;55.132;-1.586;2023-05-03T06:55:42;102444.75;;;12.04;100.00
71165;BME280;58859;55.132;-1.586;2023-05-03T06:58:08;102439.56;;;12.16;100.00
71165;BME280;58859;55.132;-1.586;2023-05-03T07:00:36;102438.28;;;12.21;100.00
71165;BME280;58859;55.132;-1.586;2023-05-03T07:03:04;102438.00;;;11.78;100.00
71165;BME280;58859;55.132;-1.586;2023-05-03T07:05:29;102433.75;;;12.12;100.00
71165;BME280;58859;55.132;-1.586;2023-05-03T07:07:55;102439.72;;;12.25;100.00
71165;BME280;58859;55.132;-1.586;2023-05-03T07:10:20;102433.69;;;12.36;100.00
71165;BME280;58859;55.132;-1.586;2023-05-03T07:12:45;102423.97;;;12.49;100.00
71165;BME280;58859;55.132;-1.586;2023-05-03T07:15:11;102424.69;;;12.62;100.00
71165;BME280;58859;55.132;-1.586;2023-05-03T07:17:36;102426.47;;;12.73;100.00
71165;BME280;58859;55.132;-1.586;2023-05-03T07:20:02;102428.94;;;12.52;100.00
71165;BME280;58859;55.132;-1.586;2023-05-03T07:22:28;102431.94;;;12.47;100.00
71165;BME280;58859;55.132;-1.586;2023-05-03T07:24:53;102434.84;;;12.32;100.00
71165;BME280;58859;55.132;-1.586;2023-05-03T07:27:19;102428.25;;;12.83;100.00
71165;BME280;58859;55.132;-1.586;2023-05-03T07:29:45;102431.22;;;12.56;100.00
71165;BME280;58859;55.132;-1.586;2023-05-03T07:32:10;102431.56;;;12.52;100.00
71165;BME280;58859;55.132;-1.586;2023-05-03T07:34:36;102428.63;;;12.79;100.00
71165;BME280;58859;55.132;-1.586;2023-05-03T07:37:01;102425.28;;;12.88;100.00
71165;BME280;58859;55.132;-1.586;2023-05-03T07:39:27;102435.25;;;12.72;100.00
71165;BME280;58859;55.132;-1.586;2023-05-03T07:41:52;102412.56;;;12.83;100.00
71165;BME280;58859;55.132;-1.586;2023-05-03T07:44:17;102432.03;;;13.01;100.00
71165;BME280;58859;55.132;-1.586;2023-05-03T07:46:43;102427.53;;;13.03;100.00
71165;BME280;58859;55.132;-1.586;2023-05-03T07:49:08;102427.38;;;13.70;100.00
71165;BME280;58859;55.132;-1.586;2023-05-03T07:51:38;102424.88;;;13.68;100.00
71165;BME280;58859;55.132;-1.586;2023-05-03T07:54:04;102417.81;;;13.59;100.00
71165;BME280;58859;55.132;-1.586;2023-05-03T07:56:30;102414.50;;;14.19;100.00
71165;BME280;58859;55.132;-1.586;2023-05-03T07:58:56;102423.53;;;14.77;100.00
71165;BME280;58859;55.132;-1.586;2023-05-03T08:01:22;102419.97;;;14.07;100.00
71165;BME280;58859;55.132;-1.586;2023-05-03T08:03:47;102421.03;;;14.46;100.00
71165;BME280;58859;55.132;-1.586;2023-05-03T08:06:16;102408.03;;;14.65;100.00
71165;BME280;58859;55.132;-1.586;2023-05-03T08:08:42;102419.84;;;14.89;100.00
71165;BME280;58859;55.132;-1.586;2023-05-03T08:11:07;102424.41;;;15.46;100.00
71165;BME280;58859;55.132;-1.586;2023-05-03T08:13:33;102430.22;;;15.10;100.00
71165;BME280;58859;55.132;-1.586;2023-05-03T08:15:59;102431.31;;;14.37;100.00
71165;BME280;58859;55.132;-1.586;2023-05-03T08:18:25;102428.50;;;14.90;100.00
71165;BME280;58859;55.132;-1.586;2023-05-03T08:20:51;102434.34;;;14.63;100.00
71165;BME280;58859;55.132;-1.586;2023-05-03T08:23:16;102432.72;;;15.12;100.00
71165;BME280;58859;55.132;-1.586;2023-05-03T08:25:42;102432.69;;;14.92;100.00
71165;BME280;58859;55.132;-1.586;2023-05-03T08:28:09;102419.31;;;15.83;100.00
71165;BME280;58859;55.132;-1.586;2023-05-03T08:30:35;102431.66;;;15.24;100.00
71165;BME280;58859;55.132;-1.586;2023-05-03T08:33:01;102424.94;;;16.17;100.00
71165;BME280;58859;55.132;-1.586;2023-05-03T08:35:26;102419.97;;;16.14;100.00
71165;BME280;58859;55.132;-1.586;2023-05-03T08:37:52;102419.75;;;17.26;100.00
71165;BME280;58859;55.132;-1.586;2023-05-03T08:40:20;102423.53;;;17.23;100.00
71165;BME280;58859;55.132;-1.586;2023-05-03T08:42:46;102419.47;;;18.00;100.00
71165;BME280;58859;55.132;-1.586;2023-05-03T08:45:13;102419.28;;;17.75;100.00
71165;BME280;58859;55.132;-1.586;2023-05-03T08:47:43;102412.75;;;18.31;100.00
71165;BME280;58859;55.132;-1.586;2023-05-03T08:50:14;102420.69;;;17.35;100.00
71165;BME280;58859;55.132;-1.586;2023-05-03T08:52:40;102419.84;;;18.05;100.00
71165;BME280;58859;55.132;-1.586;2023-05-03T08:55:07;102409.53;;;18.45;100.00
71165;BME280;58859;55.132;-1.586;2023-05-03T08:57:33;102420.09;;;17.41;100.00
71165;BME280;58859;55.132;-1.586;2023-05-03T09:00:00;102414.75;;;17.50;100.00
71165;BME280;58859;55.132;-1.586;2023-05-03T09:02:26;102416.84;;;18.00;100.00
71165;BME280;58859;55.132;-1.586;2023-05-03T09:04:52;102422.06;;;17.74;100.00
71165;BME280;58859;55.132;-1.586;2023-05-03T09:07:17;102419.06;;;18.64;100.00
71165;BME280;58859;55.132;-1.586;2023-05-03T09:09:45;102418.22;;;17.33;100.00
71165;BME280;58859;55.132;-1.586;2023-05-03T09:12:11;102412.59;;;18.50;100.00
71165;BME280;58859;55.132;-1.586;2023-05-03T09:14:45;102406.50;;;17.80;100.00
71165;BME280;58859;55.132;-1.586;2023-05-03T09:17:16;102415.50;;;17.96;100.00
71165;BME280;58859;55.132;-1.586;2023-05-03T09:19:58;102414.91;;;18.95;100.00
71165;BME280;58859;55.132;-1.586;2023-05-03T09:22:29;102417.63;;;18.69;100.00
71165;BME280;58859;55.132;-1.586;2023-05-03T09:24:56;102408.19;;;18.33;100.00
71165;BME280;58859;55.132;-1.586;2023-05-03T09:27:23;102417.13;;;18.74;100.00
71165;BME280;58859;55.132;-1.586;2023-05-03T09:29:49;102420.50;;;18.50;100.00
71165;BME280;58859;55.132;-1.586;2023-05-03T09:32:15;102413.66;;;18.48;100.00
71165;BME280;58859;55.132;-1.586;2023-05-03T09:34:42;102421.00;;;17.85;100.00
71165;BME280;58859;55.132;-1.586;2023-05-03T09:37:08;102419.91;;;18.38;100.00
71165;BME280;58859;55.132;-1.586;2023-05-03T09:39:33;102410.16;;;18.39;100.00
71165;BME280;58859;55.132;-1.586;2023-05-03T09:42:17;102415.38;;;17.17;100.00
71165;BME280;58859;55.132;-1.586;2023-05-03T09:44:47;102412.97;;;18.63;100.00
71165;BME280;58859;55.132;-1.586;2023-05-03T09:47:14;102411.78;;;19.58;100.00
71165;BME280;58859;55.132;-1.586;2023-05-03T09:49:39;102405.78;;;19.31;100.00
71165;BME280;58859;55.132;-1.586;2023-05-03T09:52:06;102406.91;;;20.42;100.00
71165;BME280;58859;55.132;-1.586;2023-05-03T09:54:33;102411.94;;;19.72;100.00
71165;BME280;58859;55.132;-1.586;2023-05-03T09:57:03;102405.66;;;19.89;100.00
71165;BME280;58859;55.132;-1.586;2023-05-03T09:59:34;102397.56;;;20.70;100.00
71165;BME280;58859;55.132;-1.586;2023-05-03T10:02:03;102403.19;;;19.64;100.00
71165;BME280;58859;55.132;-1.586;2023-05-03T10:04:37;102406.59;;;20.13;100.00
71165;BME280;58859;55.132;-1.586;2023-05-03T10:07:07;102410.19;;;19.07;100.00
71165;BME280;58859;55.132;-1.586;2023-05-03T10:09:38;102403.69;;;19.91;100.00
71165;BME280;58859;55.132;-1.586;2023-05-03T10:12:07;102406.50;;;19.49;100.00
71165;BME280;58859;55.132;-1.586;2023-05-03T10:14:33;102406.84;;;18.55;100.00
71165;BME280;58859;55.132;-1.586;2023-05-03T10:17:02;102410.53;;;19.20;100.00
71165;BME280;58859;55.132;-1.586;2023-05-03T10:19:38;102403.97;;;20.04;100.00
71165;BME280;58859;55.132;-1.586;2023-05-03T10:22:07;102408.09;;;20.07;100.00
71165;BME280;58859;55.132;-1.586;2023-05-03T10:25:05;102406.66;;;19.88;100.00
71165;BME280;58859;55.132;-1.586;2023-05-03T10:27:24;102399.41;;;19.58;100.00
71165;BME280;58859;55.132;-1.586;2023-05-03T10:29:50;102406.28;;;20.16;100.00
71165;BME280;58859;55.132;-1.586;2023-05-03T10:35:14;102401.50;;;21.58;100.00
71165;BME280;58859;55.132;-1.586;2023-05-03T10:37:41;102402.22;;;21.52;100.00
71165;BME280;58859;55.132;-1.586;2023-05-03T10:40:09;102398.09;;;22.68;100.00
71165;BME280;58859;55.132;-1.586;2023-05-03T10:42:42;102398.91;;;21.73;100.00
71165;BME280;58859;55.132;-1.586;2023-05-03T10:45:08;102412.34;;;20.48;100.00
71165;BME280;58859;55.132;-1.586;2023-05-03T10:47:34;102399.63;;;21.44;100.00
71165;BME280;58859;55.132;-1.586;2023-05-03T10:57:39;102403.84;;;21.08;100.00
71165;BME280;58859;55.132;-1.586;2023-05-03T11:02:41;102397.22;;;20.26;100.00
71165;BME280;58859;55.132;-1.586;2023-05-03T11:05:07;102395.31;;;21.43;100.00
71165;BME280;58859;55.132;-1.586;2023-05-03T11:07:35;102391.81;;;21.51;98.30
71165;BME280;58859;55.132;-1.586;2023-05-03T11:10:00;102394.06;;;22.28;100.00
71165;BME280;58859;55.132;-1.586;2023-05-03T11:12:40;102385.72;;;21.88;100.00
71165;BME280;58859;55.132;-1.586;2023-05-03T11:15:06;102388.19;;;21.89;100.00
71165;BME280;58859;55.132;-1.586;2023-05-03T11:17:31;102382.72;;;22.34;100.00
71165;BME280;58859;55.132;-1.586;2023-05-03T11:19:57;102387.00;;;21.69;100.00
71165;BME280;58859;55.132;-1.586;2023-05-03T11:22:23;102398.19;;;20.80;100.00
71165;BME280;58859;55.132;-1.586;2023-05-03T11:24:48;102386.56;;;22.32;100.00
71165;BME280;58859;55.132;-1.586;2023-05-03T11:27:22;102385.41;;;21.14;100.00
71165;BME280;58859;55.132;-1.586;2023-05-03T11:29:48;102387.50;;;21.50;100.00
71165;BME280;58859;55.132;-1.586;2023-05-03T11:32:13;102398.75;;;20.59;100.00
71165;BME280;58859;55.132;-1.586;2023-05-03T11:34:40;102396.22;;;21.05;100.00
71165;BME280;58859;55.132;-1.586;2023-05-03T11:37:07;102386.44;;;21.36;100.00
71165;BME280;58859;55.132;-1.586;2023-05-03T11:39:32;102384.72;;;21.43;100.00
71165;BME280;58859;55.132;-1.586;2023-05-03T11:42:02;102384.09;;;21.18;100.00
71165;BME280;58859;55.132;-1.586;2023-05-03T11:44:28;102383.63;;;21.98;100.00
71165;BME280;58859;55.132;-1.586;2023-05-03T11:46:54;102395.66;;;20.48;100.00
71165;BME280;58859;55.132;-1.586;2023-05-03T11:49:20;102371.47;;;21.66;100.00
71165;BME280;58859;55.132;-1.586;2023-05-03T11:51:46;102371.69;;;20.88;100.00
71165;BME280;58859;55.132;-1.586;2023-05-03T11:54:13;102365.06;;;20.53;100.00
71165;BME280;58859;55.132;-1.586;2023-05-03T11:56:38;102377.91;;;20.64;100.00
71165;BME280;58859;55.132;-1.586;2023-05-03T11:59:03;102369.19;;;21.17;100.00
71165;BME280;58859;55.132;-1.586;2023-05-03T12:01:29;102360.69;;;21.30;100.00
71165;BME280;58859;55.132;-1.586;2023-05-03T12:04:00;102377.59;;;19.96;100.00
71165;BME280;58859;55.132;-1.586;2023-05-03T12:06:26;102367.44;;;21.33;100.00
71165;BME280;58859;55.132;-1.586;2023-05-03T12:08:54;102367.16;;;21.50;100.00
71165;BME280;58859;55.132;-1.586;2023-05-03T12:11:20;102354.16;;;21.18;100.00
71165;BME280;58859;55.132;-1.586;2023-05-03T12:13:58;102349.75;;;21.70;100.00
71165;BME280;58859;55.132;-1.586;2023-05-03T12:16:24;102345.31;;;20.33;100.00
71165;BME280;58859;55.132;-1.586;2023-05-03T12:18:57;102351.16;;;20.59;100.00
71165;BME280;58859;55.132;-1.586;2023-05-03T12:21:42;102348.28;;;20.69;100.00
71165;BME280;58859;55.132;-1.586;2023-05-03T12:24:08;102350.72;;;20.79;100.00
71165;BME280;58859;55.132;-1.586;2023-05-03T12:26:33;102347.47;;;20.99;100.00
71165;BME280;58859;55.132;-1.586;2023-05-03T12:28:59;102348.00;;;21.26;100.00
71165;BME280;58859;55.132;-1.586;2023-05-03T12:31:25;102353.56;;;21.08;100.00
71165;BME280;58859;55.132;-1.586;2023-05-03T12:33:51;102342.06;;;21.61;100.00
71165;BME280;58859;55.132;-1.586;2023-05-03T12:36:17;102343.91;;;21.75;100.00
71165;BME280;58859;55.132;-1.586;2023-05-03T12:38:43;102355.91;;;20.95;100.00
71165;BME280;58859;55.132;-1.586;2023-05-03T12:41:09;102348.41;;;21.52;100.00
71165;BME280;58859;55.132;-1.586;2023-05-03T12:43:35;102340.69;;;20.74;100.00
71165;BME280;58859;55.132;-1.586;2023-05-03T12:46:01;102346.78;;;19.48;100.00
71165;BME280;58859;55.132;-1.586;2023-05-03T12:48:27;102343.72;;;20.63;100.00
71165;BME280;58859;55.132;-1.586;2023-05-03T12:50:53;102341.91;;;20.86;100.00
71165;BME280;58859;55.132;-1.586;2023-05-03T12:53:19;102332.41;;;19.83;100.00